createdAt,value
2018-11-03T00:00:23.780Z,27.30
2018-11-03T00:01:23.210Z,28.80
2018-11-03T00:02:23.503Z,25.60
2018-11-03T00:03:23.896Z,30.40
2018-11-03T00:04:23.180Z,30.00
2018-11-03T00:05:23.728Z,34.30
2018-11-03T00:06:22.884Z,34.00
2018-11-03T00:07:23.301Z,30.00
2018-11-03T00:08:23.782Z,29.10
2018-11-03T00:09:45.022Z,33.90
2018-11-03T00:10:45.576Z,30.90
2018-11-03T00:11:44.773Z,32.20
2018-11-03T00:13:06.136Z,31.70
2018-11-03T00:14:06.485Z,33.70
2018-11-03T00:15:06.977Z,33.30
2018-11-03T00:16:06.962Z,39.70
2018-11-03T00:17:06.679Z,29.80
2018-11-03T00:18:28.382Z,32.40
2018-11-03T00:19:50.128Z,39.10
2018-11-03T00:20:50.512Z,40.20
2018-11-03T00:21:49.704Z,40.70
2018-11-03T00:22:50.030Z,36.10
2018-11-03T00:23:50.219Z,39.50
2018-11-03T00:24:50.365Z,34.90
2018-11-03T00:25:49.712Z,36.20
2018-11-03T00:26:49.941Z,36.60
2018-11-03T00:27:50.072Z,35.30
2018-11-03T00:28:50.525Z,37.30
2018-11-03T00:29:49.894Z,42.70
2018-11-03T00:30:50.320Z,40.80
2018-11-03T00:31:50.591Z,41.20
2018-11-03T00:32:49.976Z,35.70
2018-11-03T00:33:49.639Z,39.20
2018-11-03T00:35:32.359Z,39.60
2018-11-03T00:36:32.669Z,45.50
2018-11-03T00:37:32.984Z,40.10
2018-11-03T00:38:12.032Z,40.80
2018-11-03T00:39:12.491Z,44.80
2018-11-03T00:40:12.871Z,41.30
2018-11-03T00:41:12.257Z,47.20
2018-11-03T00:42:12.774Z,44.60
2018-11-03T00:43:12.278Z,39.90
2018-11-03T00:44:33.869Z,43.40
2018-11-03T00:45:33.973Z,42.10
2018-11-03T00:46:34.319Z,43.70
2018-11-03T00:47:34.491Z,42.10
2018-11-03T00:48:33.882Z,41.10
2018-11-03T00:49:34.214Z,44.30
2018-11-03T00:50:34.566Z,35.30
2018-11-03T00:51:34.151Z,35.60
2018-11-03T00:52:34.580Z,40.80
2018-11-03T00:53:33.940Z,33.90
2018-11-03T00:54:34.238Z,35.90
2018-11-03T00:55:34.713Z,33.80
2018-11-03T00:56:57.395Z,33.00
2018-11-03T00:57:57.943Z,38.20
2018-11-03T00:58:57.225Z,42.70
2018-11-03T00:59:57.566Z,35.30
2018-11-03T01:00:58.116Z,40.50
2018-11-03T01:01:57.496Z,37.30
2018-11-03T01:03:09.077Z,33.40
2018-11-03T01:03:57.368Z,34.80
2018-11-03T01:04:57.658Z,34.30
2018-11-03T01:05:57.299Z,31.90
2018-11-03T01:06:57.658Z,33.50
2018-11-03T01:07:57.941Z,31.10
2018-11-03T01:08:57.495Z,28.70
2018-11-03T01:10:19.147Z,28.40
2018-11-03T01:11:19.482Z,29.70
2018-11-03T01:12:43.172Z,27.10
2018-11-03T01:13:43.532Z,27.10
2018-11-03T01:14:44.012Z,20.70
2018-11-03T01:15:43.551Z,28.90
2018-11-03T01:17:05.230Z,23.50
2018-11-03T01:18:05.587Z,23.50
2018-11-03T01:19:06.062Z,22.20
2018-11-03T01:20:05.390Z,20.50
2018-11-03T01:21:05.988Z,20.40
2018-11-03T01:22:47.790Z,25.20
2018-11-03T01:23:48.643Z,23.10
2018-11-03T01:24:48.175Z,25.60
2018-11-03T01:26:30.727Z,22.30
2018-11-03T01:27:31.140Z,23.40
2018-11-03T01:28:31.490Z,27.90
2018-11-03T01:29:30.899Z,25.00
2018-11-03T01:30:31.187Z,22.20
2018-11-03T01:31:31.832Z,22.80
2018-11-03T01:32:52.351Z,22.40
2018-11-03T01:33:52.853Z,24.20
2018-11-03T01:34:52.673Z,25.30
2018-11-03T01:36:18.885Z,20.60
2018-11-03T01:37:17.274Z,22.40
2018-11-03T01:38:17.542Z,22.40
2018-11-03T01:39:17.861Z,23.80
2018-11-03T01:40:17.454Z,23.60
2018-11-03T01:41:17.976Z,24.80
2018-11-03T01:42:38.158Z,23.10
2018-11-03T01:43:38.567Z,28.30
2018-11-03T01:44:38.881Z,23.10
2018-11-03T01:45:38.415Z,24.20
2018-11-03T01:46:38.562Z,19.90
2018-11-03T01:47:38.952Z,24.40
2018-11-03T01:48:38.371Z,18.70
2018-11-03T01:49:38.866Z,20.00
2018-11-03T01:50:39.123Z,20.60
2018-11-03T01:51:38.357Z,21.70
2018-11-03T01:52:39.231Z,21.00
2018-11-03T01:53:38.482Z,21.60
2018-11-03T01:54:38.749Z,21.40
2018-11-03T01:55:38.976Z,21.60
2018-11-03T01:56:38.281Z,22.20
2018-11-03T01:57:38.666Z,23.30
2018-11-03T01:59:01.857Z,22.50
2018-11-03T02:00:02.251Z,23.10
2018-11-03T02:01:23.649Z,21.80
2018-11-03T02:02:24.114Z,22.00
2018-11-03T02:03:26.224Z,22.00
2018-11-03T02:04:24.653Z,19.80
2018-11-03T02:05:24.010Z,18.70
2018-11-03T02:06:24.383Z,19.70
2018-11-03T02:07:24.678Z,23.90
2018-11-03T02:08:24.170Z,22.20
2018-11-03T02:09:24.455Z,22.70
2018-11-03T02:10:23.997Z,25.70
2018-11-03T02:12:28.781Z,22.60
2018-11-03T02:13:29.437Z,21.70
2018-11-03T02:14:50.184Z,22.90
2018-11-03T02:15:50.677Z,23.70
2018-11-03T02:16:50.188Z,23.70
2018-11-03T02:17:50.641Z,19.00
2018-11-03T02:18:50.009Z,21.90
2018-11-03T02:19:50.382Z,21.50
2018-11-03T02:20:50.786Z,19.90
2018-11-03T02:21:50.019Z,19.40
2018-11-03T02:22:50.536Z,17.30
2018-11-03T02:23:51.046Z,20.30
2018-11-03T02:24:50.526Z,24.70
2018-11-03T02:25:50.887Z,21.80
2018-11-03T02:26:50.395Z,23.00
2018-11-03T02:27:50.782Z,18.50
2018-11-03T02:28:50.420Z,24.40
2018-11-03T02:29:50.787Z,20.00
2018-11-03T02:30:50.013Z,21.90
2018-11-03T02:31:50.425Z,20.80
2018-11-03T02:32:50.802Z,17.40
2018-11-03T02:33:50.229Z,19.80
2018-11-03T02:34:50.818Z,20.50
2018-11-03T02:35:50.053Z,23.20
2018-11-03T02:37:11.763Z,23.30
2018-11-03T02:38:12.001Z,23.30
2018-11-03T02:39:12.041Z,23.20
2018-11-03T02:40:12.401Z,22.30
2018-11-03T02:41:32.838Z,20.70
2018-11-03T02:42:54.744Z,24.20
2018-11-03T02:43:55.720Z,27.20
2018-11-03T02:44:55.182Z,23.60
2018-11-03T02:45:54.869Z,22.50
2018-11-03T02:46:55.205Z,22.50
2018-11-03T02:47:55.543Z,22.50
2018-11-03T02:48:54.778Z,22.50
2018-11-03T02:49:55.116Z,23.40
2018-11-03T02:50:55.505Z,25.70
2018-11-03T02:51:55.115Z,25.20
2018-11-03T02:52:55.364Z,23.80
2018-11-03T02:53:55.660Z,20.90
2018-11-03T02:54:55.064Z,21.90
2018-11-03T02:55:55.032Z,22.50
2018-11-03T02:56:55.406Z,29.10
2018-11-03T02:57:55.682Z,24.10
2018-11-03T02:58:54.969Z,22.70
2018-11-03T02:59:55.157Z,20.20
2018-11-03T03:00:55.499Z,20.90
2018-11-03T03:01:54.859Z,22.80
2018-11-03T03:02:55.240Z,25.60
2018-11-03T03:04:16.554Z,24.50
2018-11-03T03:05:17.157Z,25.30
2018-11-03T03:06:17.506Z,29.60
2018-11-03T03:07:17.041Z,24.40
2018-11-03T03:08:38.431Z,24.20
2018-11-03T03:09:38.794Z,21.20
2018-11-03T03:10:39.065Z,30.70
2018-11-03T03:11:38.370Z,21.10
2018-11-03T03:12:38.805Z,25.60
2018-11-03T03:13:59.653Z,25.30
2018-11-03T03:15:00.029Z,25.30
2018-11-03T03:16:00.359Z,21.40
2018-11-03T03:17:00.056Z,24.40
2018-11-03T03:18:00.362Z,34.60
2018-11-03T03:18:59.931Z,24.40
2018-11-03T03:20:21.519Z,23.90
2018-11-03T03:21:21.939Z,24.30
2018-11-03T03:22:22.172Z,24.80
2018-11-03T03:23:35.244Z,23.90
2018-11-03T03:24:21.553Z,25.50
2018-11-03T03:25:34.188Z,25.30
2018-11-03T03:26:26.087Z,25.50
2018-11-03T03:27:43.691Z,27.00
2018-11-03T03:28:44.363Z,27.20
2018-11-03T03:29:44.051Z,27.00
2018-11-03T03:31:04.917Z,23.70
2018-11-03T03:32:05.175Z,23.80
2018-11-03T03:33:05.545Z,22.70
2018-11-03T03:34:04.973Z,21.80
2018-11-03T03:35:05.396Z,25.50
2018-11-03T03:36:04.908Z,25.10
2018-11-03T03:37:05.431Z,21.00
2018-11-03T03:38:04.706Z,23.70
2018-11-03T03:39:05.284Z,25.70
2018-11-03T03:40:05.744Z,24.80
2018-11-03T03:41:05.215Z,25.00
2018-11-03T03:42:05.577Z,28.70
2018-11-03T03:43:04.885Z,25.50
2018-11-03T03:44:05.260Z,25.40
2018-11-03T03:45:05.672Z,24.70
2018-11-03T03:46:05.105Z,26.20
2018-11-03T03:47:05.364Z,25.30
2018-11-03T03:48:05.006Z,24.10
2018-11-03T03:49:05.319Z,26.00
2018-11-03T03:50:05.773Z,26.70
2018-11-03T03:51:05.183Z,22.20
2018-11-03T03:52:05.666Z,26.60
2018-11-03T03:53:05.246Z,25.30
2018-11-03T03:54:05.522Z,26.70
2018-11-03T03:55:04.963Z,25.60
2018-11-03T03:56:26.510Z,27.50
2018-11-03T03:57:27.050Z,27.10
2018-11-03T03:58:27.340Z,24.20
2018-11-03T03:59:26.753Z,22.10
2018-11-03T04:00:27.103Z,22.10
2018-11-03T04:01:26.884Z,21.50
2018-11-03T04:02:27.125Z,24.30
2018-11-03T04:03:27.480Z,22.80
2018-11-03T04:04:27.480Z,25.70
2018-11-03T04:05:27.074Z,26.60
2018-11-03T04:06:48.940Z,25.80
2018-11-03T04:07:49.444Z,27.00
2018-11-03T04:08:49.876Z,26.20
2018-11-03T04:09:49.192Z,24.30
2018-11-03T04:11:10.872Z,25.50
2018-11-03T04:12:11.366Z,26.00
2018-11-03T04:13:11.659Z,24.60
2018-11-03T04:14:11.190Z,24.90
2018-11-03T04:15:11.633Z,24.30
2018-11-03T04:16:11.136Z,25.60
2018-11-03T04:17:11.247Z,30.20
2018-11-03T04:18:10.734Z,31.30
2018-11-03T04:19:11.154Z,28.30
2018-11-03T04:20:32.828Z,24.20
2018-11-03T04:21:33.578Z,31.60
2018-11-03T04:22:33.885Z,29.70
2018-11-03T04:23:33.117Z,27.80
2018-11-03T04:24:33.563Z,27.10
2018-11-03T04:25:33.045Z,35.00
2018-11-03T04:26:33.288Z,29.80
2018-11-03T04:27:33.603Z,29.50
2018-11-03T04:28:32.867Z,30.90
2018-11-03T04:29:54.309Z,31.00
2018-11-03T04:30:54.815Z,32.20
2018-11-03T04:31:55.121Z,32.30
2018-11-03T04:32:54.408Z,29.20
2018-11-03T04:33:54.655Z,33.70
2018-11-03T04:34:54.551Z,29.10
2018-11-03T04:36:16.123Z,30.50
2018-11-03T04:37:16.457Z,27.80
2018-11-03T04:38:37.217Z,30.20
2018-11-03T04:39:37.670Z,28.10
2018-11-03T04:40:38.033Z,26.40
2018-11-03T04:41:37.447Z,28.70
2018-11-03T04:42:37.823Z,29.60
2018-11-03T04:43:38.186Z,28.40
2018-11-03T04:44:37.602Z,30.50
2018-11-03T04:45:38.208Z,30.10
2018-11-03T04:46:37.781Z,28.40
2018-11-03T04:47:37.164Z,25.40
2018-11-03T04:48:37.445Z,30.20
2018-11-03T04:49:58.854Z,26.50
2018-11-03T04:50:59.259Z,28.60
2018-11-03T04:51:59.733Z,27.30
2018-11-03T04:52:59.326Z,27.60
2018-11-03T04:53:59.700Z,28.00
2018-11-03T04:55:19.955Z,27.00
2018-11-03T04:56:41.309Z,29.20
2018-11-03T04:57:41.719Z,31.50
2018-11-03T04:58:42.021Z,29.40
2018-11-03T04:59:42.486Z,27.90
2018-11-03T05:00:42.077Z,29.20
2018-11-03T05:01:42.337Z,29.00
2018-11-03T05:02:42.181Z,27.60
2018-11-03T05:03:41.309Z,25.90
2018-11-03T05:05:04.760Z,29.20
2018-11-03T05:06:05.069Z,26.90
2018-11-03T05:07:05.404Z,29.00
2018-11-03T05:08:04.978Z,28.10
2018-11-03T05:09:05.336Z,24.80
2018-11-03T05:10:05.026Z,29.90
2018-11-03T05:11:05.375Z,29.10
2018-11-03T05:12:04.629Z,25.00
2018-11-03T05:13:04.997Z,27.00
2018-11-03T05:14:05.515Z,26.00
2018-11-03T05:15:04.929Z,24.30
2018-11-03T05:16:05.384Z,27.40
2018-11-03T05:17:04.916Z,26.80
2018-11-03T05:18:05.083Z,25.60
2018-11-03T05:19:05.325Z,26.70
2018-11-03T05:20:04.726Z,28.70
2018-11-03T05:21:05.433Z,25.80
2018-11-03T05:22:04.927Z,25.40
2018-11-03T05:23:05.404Z,25.60
2018-11-03T05:24:04.590Z,32.10
2018-11-03T05:25:04.902Z,28.70
2018-11-03T05:26:05.305Z,32.40
2018-11-03T05:27:04.807Z,29.50
2018-11-03T05:28:05.207Z,30.00
2018-11-03T05:29:05.602Z,32.10
2018-11-03T05:30:05.155Z,32.10
2018-11-03T05:31:04.603Z,30.90
2018-11-03T05:32:26.247Z,33.70
2018-11-03T05:33:26.517Z,38.20
2018-11-03T05:34:26.992Z,37.10
2018-11-03T05:35:47.448Z,38.10
2018-11-03T05:36:47.754Z,30.90
2018-11-03T05:37:48.274Z,34.30
2018-11-03T05:38:47.641Z,35.70
2018-11-03T05:40:08.938Z,33.50
2018-11-03T05:41:09.492Z,35.00
2018-11-03T05:42:08.940Z,65.60
2018-11-03T05:43:09.284Z,54.90
2018-11-03T05:44:32.723Z,48.30
2018-11-03T05:45:33.090Z,38.40
2018-11-03T05:46:33.518Z,34.30
2018-11-03T05:47:54.176Z,31.50
2018-11-03T05:48:54.279Z,31.00
2018-11-03T05:49:54.572Z,32.90
2018-11-03T05:50:55.071Z,31.50
2018-11-03T05:51:54.411Z,29.90
2018-11-03T05:52:54.775Z,32.90
2018-11-03T05:53:54.108Z,33.70
2018-11-03T05:54:54.542Z,36.60
2018-11-03T05:55:54.841Z,41.20
2018-11-03T05:56:54.163Z,42.30
2018-11-03T05:57:54.451Z,34.40
2018-11-03T05:59:15.856Z,41.40
2018-11-03T06:00:16.254Z,39.50
2018-11-03T06:01:16.989Z,38.00
2018-11-03T06:02:16.487Z,39.30
2018-11-03T06:03:15.953Z,39.20
2018-11-03T06:04:16.358Z,33.70
2018-11-03T06:05:16.807Z,36.20
2018-11-03T06:06:37.550Z,31.10
2018-11-03T06:07:37.870Z,38.70
2018-11-03T06:08:38.289Z,41.20
2018-11-03T06:09:38.077Z,34.10
2018-11-03T06:10:38.654Z,37.30
2018-11-03T06:11:38.021Z,35.40
2018-11-03T06:13:01.235Z,35.30
2018-11-03T06:14:01.806Z,37.20
2018-11-03T06:15:02.854Z,38.90
2018-11-03T06:16:01.490Z,38.60
2018-11-03T06:17:01.385Z,35.80
2018-11-03T06:18:01.769Z,37.10
2018-11-03T06:19:01.568Z,43.00
2018-11-03T06:20:23.343Z,42.40
2018-11-03T06:21:23.678Z,55.40
2018-11-03T06:22:24.189Z,47.00
2018-11-03T06:23:23.764Z,45.40
2018-11-03T06:24:24.661Z,41.20
2018-11-03T06:25:24.130Z,42.00
2018-11-03T06:26:23.853Z,39.20
2018-11-03T06:27:24.145Z,39.40
2018-11-03T06:28:23.624Z,41.50
2018-11-03T06:29:24.025Z,40.60
2018-11-03T06:30:23.803Z,42.80
2018-11-03T06:31:24.297Z,43.50
2018-11-03T06:32:24.031Z,40.40
2018-11-03T06:33:23.676Z,43.20
2018-11-03T06:34:45.627Z,44.20
2018-11-03T06:35:46.350Z,42.30
2018-11-03T06:36:45.900Z,41.30
2018-11-03T06:37:46.580Z,40.20
2018-11-03T06:38:46.096Z,41.80
2018-11-03T06:39:46.464Z,41.40
2018-11-03T06:40:45.878Z,42.70
2018-11-03T06:42:07.852Z,39.70
2018-11-03T06:43:08.412Z,41.40
2018-11-03T06:44:07.920Z,46.60
2018-11-03T06:45:08.638Z,38.40
2018-11-03T06:46:29.601Z,40.00
2018-11-03T06:47:30.321Z,42.60
2018-11-03T06:48:30.097Z,41.60
2018-11-03T06:49:29.746Z,41.60
2018-11-03T06:50:29.565Z,42.00
2018-11-03T06:51:51.769Z,41.70
2018-11-03T06:52:52.382Z,40.70
2018-11-03T06:53:52.262Z,42.50
2018-11-03T06:54:52.836Z,40.50
2018-11-03T06:55:51.889Z,37.80
2018-11-03T06:56:52.476Z,40.30
2018-11-03T06:57:51.877Z,41.80
2018-11-03T06:58:52.416Z,43.80
2018-11-03T06:59:52.009Z,44.20
2018-11-03T07:01:14.283Z,44.00
2018-11-03T07:02:35.288Z,41.50
2018-11-03T07:03:35.861Z,42.90
2018-11-03T07:04:35.547Z,45.40
2018-11-03T07:05:36.185Z,40.10
2018-11-03T07:06:35.831Z,44.30
2018-11-03T07:07:35.419Z,41.50
2018-11-03T07:08:35.987Z,47.60
2018-11-03T07:09:57.053Z,51.30
2018-11-03T07:10:57.957Z,47.50
2018-11-03T07:11:57.609Z,45.30
2018-11-03T07:12:57.310Z,39.80
2018-11-03T07:13:57.116Z,43.40
2018-11-03T07:14:57.630Z,44.50
2018-11-03T07:15:57.379Z,45.20
2018-11-03T07:17:19.084Z,36.80
2018-11-03T07:18:19.764Z,41.90
2018-11-03T07:19:19.380Z,36.80
2018-11-03T07:21:04.242Z,46.00
2018-11-03T07:22:05.741Z,44.20
2018-11-03T07:23:04.130Z,46.00
2018-11-03T07:24:04.718Z,46.80
2018-11-03T07:25:04.231Z,47.80
2018-11-03T07:26:04.855Z,45.00
2018-11-03T07:27:04.947Z,42.50
2018-11-03T07:28:25.937Z,41.60
2018-11-03T07:29:26.700Z,42.40
2018-11-03T07:30:26.442Z,45.10
2018-11-03T07:31:25.887Z,40.90
2018-11-03T07:32:26.397Z,50.60
2018-11-03T07:34:34.940Z,50.50
2018-11-03T07:35:58.224Z,43.40
2018-11-03T07:36:58.985Z,43.30
2018-11-03T07:37:58.684Z,41.90
2018-11-03T07:38:58.344Z,48.00
2018-11-03T07:39:58.904Z,44.80
2018-11-03T07:40:58.686Z,49.70
2018-11-03T07:42:19.918Z,50.30
2018-11-03T07:43:20.675Z,53.50
2018-11-03T07:44:41.756Z,56.60
2018-11-03T07:46:04.282Z,54.90
2018-11-03T07:47:04.860Z,51.50
2018-11-03T07:48:04.625Z,53.80
2018-11-03T07:49:04.429Z,52.80
2018-11-03T07:50:04.408Z,58.60
2018-11-03T07:51:25.548Z,53.20
2018-11-03T07:52:47.222Z,51.80
2018-11-03T07:53:48.035Z,51.60
2018-11-03T07:54:47.938Z,46.80
2018-11-03T07:55:47.644Z,47.40
2018-11-03T07:56:47.235Z,46.30
2018-11-03T07:57:47.874Z,46.70
2018-11-03T07:58:47.570Z,47.00
2018-11-03T07:59:48.123Z,47.70
2018-11-03T08:01:30.108Z,47.40
2018-11-03T08:02:30.579Z,43.40
2018-11-03T08:03:30.362Z,45.80
2018-11-03T08:04:30.766Z,44.90
2018-11-03T08:05:30.400Z,39.50
2018-11-03T08:06:31.066Z,40.40
2018-11-03T08:07:30.668Z,39.00
2018-11-03T08:08:30.378Z,42.60
2018-11-03T08:09:30.473Z,45.10
2018-11-03T08:10:30.969Z,43.40
2018-11-03T08:11:30.575Z,45.70
2018-11-03T08:12:30.290Z,41.60
2018-11-03T08:13:30.884Z,43.70
2018-11-03T08:14:30.540Z,47.00
2018-11-03T08:15:30.352Z,42.70
2018-11-03T08:16:31.095Z,39.80
2018-11-03T08:17:30.693Z,37.30
2018-11-03T08:18:30.434Z,45.30
2018-11-03T08:19:30.180Z,43.00
2018-11-03T08:20:30.686Z,41.70
2018-11-03T08:21:30.461Z,48.30
2018-11-03T08:22:31.572Z,49.80
2018-11-03T08:23:51.651Z,48.10
2018-11-03T08:24:52.561Z,44.70
2018-11-03T08:25:52.045Z,47.20
2018-11-03T08:26:51.791Z,44.60
2018-11-03T08:28:13.802Z,46.40
2018-11-03T08:29:14.325Z,43.20
2018-11-03T08:30:14.731Z,41.90
2018-11-03T08:31:14.439Z,42.30
2018-11-03T08:32:14.244Z,42.70
2018-11-03T08:33:14.983Z,44.20
2018-11-03T08:34:15.154Z,40.70
2018-11-03T08:35:14.902Z,40.40
2018-11-03T08:36:14.752Z,39.60
2018-11-03T08:37:14.733Z,35.40
2018-11-03T08:38:14.698Z,43.70
2018-11-03T08:39:14.317Z,38.70
2018-11-03T08:40:14.912Z,36.30
2018-11-03T08:41:14.698Z,34.90
2018-11-03T08:42:14.223Z,37.20
2018-11-03T08:43:14.858Z,35.30
2018-11-03T08:44:14.295Z,35.60
2018-11-03T08:45:14.778Z,31.70
2018-11-03T08:46:59.582Z,34.80
2018-11-03T08:48:00.488Z,34.70
2018-11-03T08:49:00.453Z,35.10
2018-11-03T08:50:00.515Z,31.10
2018-11-03T08:51:00.243Z,31.00
2018-11-03T08:52:00.103Z,32.10
2018-11-03T08:53:00.119Z,32.20
2018-11-03T08:53:59.849Z,28.40
2018-11-03T08:54:59.824Z,32.70
2018-11-03T08:56:23.825Z,33.60
2018-11-03T08:57:24.579Z,33.90
2018-11-03T08:58:24.427Z,33.20
2018-11-03T08:59:24.580Z,33.80
2018-11-03T09:00:24.265Z,35.30
2018-11-03T09:01:24.097Z,33.80
2018-11-03T09:02:46.360Z,31.90
2018-11-03T09:03:47.163Z,33.60
2018-11-03T09:04:47.076Z,31.30
2018-11-03T09:05:46.959Z,29.70
2018-11-03T09:06:47.069Z,31.50
2018-11-03T09:08:10.699Z,28.70
2018-11-03T09:10:48.787Z,28.20
2018-11-03T09:11:49.422Z,25.40
2018-11-03T09:13:10.409Z,27.50
2018-11-03T09:14:57.850Z,25.90
2018-11-03T09:15:58.662Z,33.80
2018-11-03T09:16:58.274Z,25.80
2018-11-03T09:17:57.926Z,24.20
2018-11-03T09:18:58.426Z,22.10
2018-11-03T09:19:58.150Z,21.60
2018-11-03T09:20:57.909Z,23.10
2018-11-03T09:21:58.741Z,23.60
2018-11-03T09:22:58.943Z,23.10
2018-11-03T09:23:58.499Z,24.10
2018-11-03T09:24:58.287Z,22.40
2018-11-03T09:25:58.266Z,25.30
2018-11-03T09:26:57.944Z,22.40
2018-11-03T09:28:20.216Z,21.80
2018-11-03T09:29:21.150Z,22.10
2018-11-03T09:30:21.128Z,21.70
2018-11-03T09:31:20.810Z,19.50
2018-11-03T09:32:20.505Z,20.30
2018-11-03T09:33:20.439Z,19.10
2018-11-03T09:34:20.211Z,21.20
2018-11-03T09:35:20.921Z,21.40
2018-11-03T09:36:20.697Z,21.00
2018-11-03T09:37:43.723Z,21.50
2018-11-03T09:38:44.649Z,26.00
2018-11-03T09:40:08.174Z,84.40
2018-11-03T09:41:08.951Z,46.60
2018-11-03T09:42:08.677Z,24.30
2018-11-03T09:43:08.681Z,21.10
2018-11-03T09:44:08.196Z,22.00
2018-11-03T09:45:08.998Z,19.40
2018-11-03T09:46:08.791Z,20.50
2018-11-03T09:47:08.507Z,21.30
2018-11-03T09:48:08.192Z,20.80
2018-11-03T09:49:08.879Z,20.50
2018-11-03T09:50:29.798Z,20.90
2018-11-03T09:51:51.519Z,21.40
2018-11-03T09:52:51.274Z,19.60
2018-11-03T09:53:52.022Z,23.50
2018-11-03T09:54:52.155Z,18.40
2018-11-03T09:55:51.835Z,23.70
2018-11-03T09:56:51.693Z,26.10
2018-11-03T09:57:51.439Z,33.70
2018-11-03T09:58:52.083Z,26.60
2018-11-03T09:59:51.957Z,19.40
2018-11-03T10:00:52.698Z,20.70
2018-11-03T10:01:51.308Z,19.50
2018-11-03T10:02:51.986Z,18.20
2018-11-03T10:03:51.595Z,24.20
2018-11-03T10:04:51.567Z,18.50
2018-11-03T10:05:52.222Z,20.40
2018-11-03T10:06:51.947Z,24.30
2018-11-03T10:07:51.636Z,26.30
2018-11-03T10:08:51.381Z,20.80
2018-11-03T10:09:52.061Z,22.60
2018-11-03T10:10:52.234Z,16.70
2018-11-03T10:11:51.972Z,22.20
2018-11-03T10:12:51.777Z,17.10
2018-11-03T10:14:13.663Z,16.70
2018-11-03T10:15:13.420Z,18.70
2018-11-03T10:16:13.245Z,16.90
2018-11-03T10:17:13.748Z,15.90
2018-11-03T10:18:13.542Z,15.40
2018-11-03T10:19:13.460Z,17.70
2018-11-03T10:20:34.751Z,17.90
2018-11-03T10:21:35.731Z,17.20
2018-11-03T10:22:35.091Z,15.20
2018-11-03T10:23:34.762Z,16.30
2018-11-03T10:24:35.672Z,16.80
2018-11-03T10:25:35.557Z,16.10
2018-11-03T10:26:58.745Z,17.00
2018-11-03T10:27:59.631Z,20.60
2018-11-03T10:28:59.208Z,15.50
2018-11-03T10:29:59.010Z,16.50
2018-11-03T10:30:59.136Z,21.70
2018-11-03T10:32:22.293Z,23.20
2018-11-03T10:33:46.626Z,17.20
2018-11-03T10:34:47.459Z,23.10
2018-11-03T10:35:47.177Z,13.80
2018-11-03T10:36:47.047Z,14.10
2018-11-03T10:37:46.695Z,13.90
2018-11-03T10:39:32.204Z,16.40
2018-11-03T10:40:32.700Z,18.30
2018-11-03T10:41:32.514Z,14.50
2018-11-03T10:42:32.207Z,12.70
2018-11-03T10:43:56.226Z,12.50
2018-11-03T10:44:57.056Z,16.80
2018-11-03T10:45:56.833Z,12.60
2018-11-03T10:46:56.761Z,15.90
2018-11-03T10:49:05.041Z,12.00
2018-11-03T10:50:05.816Z,17.00
2018-11-03T10:51:05.403Z,14.00
2018-11-03T10:52:06.174Z,12.30
2018-11-03T10:53:06.166Z,17.60
2018-11-03T10:54:05.882Z,11.90
2018-11-03T10:55:05.568Z,13.90
2018-11-03T10:56:05.375Z,14.60
2018-11-03T10:57:05.843Z,14.40
2018-11-03T10:58:27.296Z,11.90
2018-11-03T10:59:27.913Z,13.60
2018-11-03T11:00:27.586Z,11.90
2018-11-03T11:01:27.214Z,13.60
2018-11-03T11:02:27.926Z,9.40
2018-11-03T11:03:28.036Z,13.30
2018-11-03T11:04:27.925Z,16.80
2018-11-03T11:05:27.560Z,11.60
2018-11-03T11:06:27.391Z,18.00
2018-11-03T11:07:28.135Z,9.70
2018-11-03T11:08:27.908Z,11.80
2018-11-03T11:09:27.864Z,13.00
2018-11-03T11:10:27.644Z,16.60
2018-11-03T11:11:28.307Z,11.30
2018-11-03T11:12:28.269Z,13.50
2018-11-03T11:13:28.227Z,11.20
2018-11-03T11:14:28.060Z,8.50
2018-11-03T11:15:51.139Z,12.90
2018-11-03T11:16:52.014Z,13.60
2018-11-03T11:17:51.897Z,13.60
2018-11-03T11:18:51.718Z,11.80
2018-11-03T11:19:51.353Z,12.40
2018-11-03T11:20:52.132Z,12.80
2018-11-03T11:21:51.974Z,11.50
2018-11-03T11:22:51.779Z,13.30
2018-11-03T11:23:51.589Z,13.70
2018-11-03T11:24:51.177Z,13.70
2018-11-03T11:25:51.050Z,10.70
2018-11-03T11:26:51.754Z,10.70
2018-11-03T11:27:51.615Z,11.20
2018-11-03T11:28:51.265Z,12.40
2018-11-03T11:29:51.835Z,12.50
2018-11-03T11:30:51.705Z,12.40
2018-11-03T11:31:51.436Z,12.50
2018-11-03T11:32:51.344Z,10.80
2018-11-03T11:33:51.125Z,12.40
2018-11-03T11:34:52.045Z,12.00
2018-11-03T11:35:51.946Z,12.80
2018-11-03T11:36:51.626Z,10.50
2018-11-03T11:37:51.305Z,13.10
2018-11-03T11:39:12.628Z,12.80
2018-11-03T11:40:37.037Z,9.60
2018-11-03T11:41:36.922Z,14.40
2018-11-03T11:42:36.572Z,12.50
2018-11-03T11:43:37.528Z,11.10
2018-11-03T11:44:37.194Z,13.00
2018-11-03T11:45:36.838Z,12.00
2018-11-03T11:46:37.666Z,11.00
2018-11-03T11:47:37.606Z,13.80
2018-11-03T11:48:37.147Z,12.10
2018-11-03T11:49:36.915Z,14.10
2018-11-03T11:50:36.480Z,13.10
2018-11-03T11:51:37.309Z,10.90
2018-11-03T11:52:37.228Z,14.70
2018-11-03T11:53:37.176Z,9.60
2018-11-03T11:54:36.854Z,16.80
2018-11-03T11:55:36.843Z,13.00
2018-11-03T11:56:58.053Z,16.60
2018-11-03T11:58:46.107Z,14.30
2018-11-03T11:59:46.767Z,12.00
2018-11-03T12:00:46.428Z,13.90
2018-11-03T12:01:46.165Z,9.80
2018-11-03T12:02:47.147Z,10.90
2018-11-03T12:03:46.788Z,14.40
2018-11-03T12:04:46.812Z,14.20
2018-11-03T12:06:31.618Z,12.50
2018-11-03T12:07:32.251Z,12.60
2018-11-03T12:08:31.916Z,12.20
2018-11-03T12:09:31.824Z,13.50
2018-11-03T12:10:31.917Z,15.50
2018-11-03T12:11:31.747Z,12.00
2018-11-03T12:12:31.817Z,14.60
2018-11-03T12:13:31.535Z,15.30
2018-11-03T12:14:32.285Z,13.70
2018-11-03T12:15:32.167Z,10.40
2018-11-03T12:16:31.791Z,16.80
2018-11-03T12:17:31.654Z,10.90
2018-11-03T12:18:32.611Z,15.50
2018-11-03T12:19:32.556Z,13.00
2018-11-03T12:20:32.289Z,14.00
2018-11-03T12:21:55.693Z,10.40
2018-11-03T12:22:56.575Z,10.20
2018-11-03T12:23:56.413Z,12.90
2018-11-03T12:24:56.259Z,12.20
2018-11-03T12:25:56.204Z,13.60
2018-11-03T12:27:19.928Z,11.00
2018-11-03T12:28:20.525Z,8.00
2018-11-03T12:30:07.368Z,8.50
2018-11-03T12:31:07.196Z,8.10
2018-11-03T12:32:07.930Z,10.60
2018-11-03T12:33:08.054Z,11.60
2018-11-03T12:34:31.511Z,8.80
2018-11-03T12:35:39.607Z,11.90
2018-11-03T12:36:31.585Z,9.50
2018-11-03T12:37:53.017Z,10.30
2018-11-03T12:38:53.922Z,8.60
2018-11-03T12:39:53.750Z,8.90
2018-11-03T12:40:53.778Z,8.30
2018-11-03T12:41:53.671Z,7.20
2018-11-03T12:42:53.759Z,7.80
2018-11-03T12:43:53.522Z,7.60
2018-11-03T12:44:53.310Z,8.40
2018-11-03T12:45:53.532Z,8.00
2018-11-03T12:46:53.408Z,8.80
2018-11-03T12:47:53.651Z,6.60
2018-11-03T12:48:53.287Z,6.70
2018-11-03T12:49:53.257Z,5.20
2018-11-03T12:50:53.259Z,5.20
2018-11-03T12:51:53.137Z,7.40
2018-11-03T12:52:53.241Z,7.80
2018-11-03T12:53:53.029Z,7.50
2018-11-03T12:54:36.255Z,6.60
2018-11-03T12:55:36.344Z,9.60
2018-11-03T12:56:36.321Z,9.10
2018-11-03T12:57:36.935Z,7.50
2018-11-03T12:59:47.468Z,9.60
2018-11-03T13:00:48.204Z,6.40
2018-11-03T13:01:48.396Z,10.30
2018-11-03T13:02:48.190Z,7.50
2018-11-03T13:04:35.112Z,7.30
2018-11-03T13:05:35.345Z,6.00
2018-11-03T13:06:35.020Z,7.30
2018-11-03T13:07:35.763Z,8.20
2018-11-03T13:08:35.916Z,7.60
2018-11-03T13:09:35.995Z,10.30
2018-11-03T13:10:35.947Z,7.70
2018-11-03T13:12:00.205Z,9.20
2018-11-03T13:13:00.083Z,9.10
2018-11-03T13:14:00.712Z,8.40
2018-11-03T13:15:00.443Z,8.30
2018-11-03T13:16:00.230Z,8.70
2018-11-03T13:17:00.326Z,7.70
2018-11-03T13:18:01.186Z,9.30
2018-11-03T13:19:23.992Z,8.60
2018-11-03T13:20:48.416Z,8.00
2018-11-03T13:21:49.356Z,9.90
2018-11-03T13:22:49.445Z,6.40
2018-11-03T13:23:49.259Z,6.40
2018-11-03T13:24:49.068Z,14.70
2018-11-03T13:25:48.985Z,9.90
2018-11-03T13:27:12.546Z,10.40
2018-11-03T13:28:12.514Z,9.60
2018-11-03T13:29:12.397Z,8.70
2018-11-03T13:30:37.105Z,8.90
2018-11-03T13:31:39.075Z,10.40
2018-11-03T13:32:38.377Z,7.70
2018-11-03T13:33:37.554Z,7.20
2018-11-03T13:34:37.476Z,6.90
2018-11-03T13:35:38.482Z,8.20
2018-11-03T13:37:01.298Z,9.80
2018-11-03T13:38:02.048Z,7.40
2018-11-03T13:39:02.061Z,11.70
2018-11-03T13:40:01.794Z,7.60
2018-11-03T13:41:02.118Z,10.00
2018-11-03T13:42:02.012Z,12.00
2018-11-03T13:43:01.817Z,8.00